»·PEaware :: N1BA KSBA-KSAN

N1BA :: KSBA-KSAN

FLIGHT INFORMATION

Flight Status: Arrived
Operator: Privately registered:
United States
More flights under this callsign
Pilot: Brian A. (9771)
Aircraft: Unknown
(LGEZ)
More flights by this aircraft type
Origin: KSBA Santa Barbara Mun
United States
Destination: KSAN San Diego Intl-Lindbergh
United States
More flights between these airports :: More routes between these airports
Route: +HENER V186 DARTS V597 MZB
File this flight plan on PilotEdge
Remarks: tec route sbap27
Altitude:
(Current/Filed)
9,000ft
Speed:
(Current/Filed)
150kts
Departed: 10-Feb-19 01:57 PM
Arrived: 10-Feb-19 03:33 PM
Distance/Time
Traveled:
167nm/1:35
Distance/Time
To Go:
Arrived

Flight Plot

Page will automatically refresh every two minutes.


Map Options




Map Legend


Flown Route
Filed Route
Departure Airport
Arrival Airport
Navaid (VOR, NDB)
Fix

Horizontal Profiles

Position Reports

Time Latitude Longitude Heading Altitude Ground
Speed
10-Feb-19 13:28 34.432568 -119.835091 71 15ft 0kts
10-Feb-19 13:29 34.432568 -119.835091 71 15ft 0kts
10-Feb-19 13:30 34.432568 -119.835091 71 15ft 0kts
10-Feb-19 13:31 34.432568 -119.835091 71 15ft 0kts
10-Feb-19 13:32 34.432568 -119.835091 71 15ft 0kts
10-Feb-19 13:33 34.432568 -119.835091 71 15ft 0kts
10-Feb-19 13:34 34.432568 -119.835091 71 15ft 0kts
10-Feb-19 13:35 34.432568 -119.835091 71 15ft 0kts
10-Feb-19 13:36 34.432568 -119.835091 71 15ft 0kts
10-Feb-19 13:37 34.432568 -119.835091 71 15ft 0kts
10-Feb-19 13:38 34.432568 -119.835091 71 15ft 0kts
10-Feb-19 13:39 34.432568 -119.835091 71 15ft 0kts
10-Feb-19 13:40 34.432568 -119.835091 71 15ft 0kts
10-Feb-19 13:41 34.432568 -119.835091 71 15ft 0kts
10-Feb-19 13:42 34.432568 -119.835091 71 15ft 0kts
10-Feb-19 13:43 34.432568 -119.835091 71 15ft 0kts
10-Feb-19 13:44 34.432568 -119.835091 71 15ft 0kts
10-Feb-19 13:45 34.432568 -119.835091 71 15ft 0kts
10-Feb-19 13:46 34.432568 -119.835091 71 15ft 0kts
10-Feb-19 13:47 34.432568 -119.835091 71 15ft 0kts
10-Feb-19 13:48 34.432568 -119.835091 71 15ft 0kts
10-Feb-19 13:49 34.432545 -119.835024 283 15ft 2kts
10-Feb-19 13:50 34.432618 -119.835232 285 15ft 0kts
10-Feb-19 13:51 34.432124 -119.835354 184 15ft 13kts
10-Feb-19 13:52 34.428980 -119.834767 145 15ft 9kts
10-Feb-19 13:53 34.428749 -119.834685 208 15ft 0kts
10-Feb-19 13:54 34.428749 -119.834685 208 15ft 0kts
10-Feb-19 13:55 34.428076 -119.834919 242 15ft 10kts
10-Feb-19 13:56 34.425166 -119.860873 263 1350ft 100kts
10-Feb-19 13:57 34.421842 -119.896356 268 2596ft 119kts
10-Feb-19 13:58 34.421842 -119.943670 272 2692ft 153kts
10-Feb-19 13:59 34.420847 -119.995475 274 2596ft 160kts
10-Feb-19 14:00 34.423188 -120.048824 271 2600ft 157kts
10-Feb-19 14:01 34.420199 -120.100143 269 3046ft 141kts
10-Feb-19 14:02 34.396026 -120.125010 144 3647ft 159kts
10-Feb-19 14:03 34.394589 -120.075900 114 4648ft 152kts
10-Feb-19 14:04 34.381367 -120.030156 100 5736ft 146kts
10-Feb-19 14:05 34.372064 -119.981660 110 6691ft 146kts
10-Feb-19 14:06 34.361814 -119.934197 100 7604ft 148kts
10-Feb-19 14:07 34.359971 -119.877147 89 7744ft 189kts
10-Feb-19 14:08 34.363242 -119.810921 84 7743ft 197kts
10-Feb-19 14:09 34.368452 -119.744907 85 7744ft 196kts
10-Feb-19 14:10 34.372341 -119.678839 87 7745ft 196kts
10-Feb-19 14:11 34.374854 -119.612833 89 7745ft 196kts
10-Feb-19 14:12 34.372875 -119.546603 97 7746ft 198kts
10-Feb-19 14:13 34.364236 -119.481407 105 7748ft 194kts
10-Feb-19 14:14 34.349491 -119.418843 110 7750ft 191kts
10-Feb-19 14:15 34.337318 -119.355654 100 7753ft 193kts
10-Feb-19 14:16 34.337360 -119.292505 83 8075ft 185kts
10-Feb-19 14:17 34.349326 -119.233319 73 8545ft 182kts
10-Feb-19 14:18 34.361859 -119.173342 84 8762ft 192kts
10-Feb-19 14:19 34.359938 -119.107708 107 8762ft 195kts
10-Feb-19 14:20 34.337140 -119.049823 124 8762ft 191kts
10-Feb-19 14:21 34.326196 -118.986160 86 8763ft 202kts
10-Feb-19 14:22 34.348798 -118.923050 54 8762ft 210kts
10-Feb-19 14:23 34.368575 -118.857707 103 8764ft 206kts
10-Feb-19 14:24 34.344919 -118.802947 154 8764ft 174kts
10-Feb-19 14:25 34.308073 -118.767983 149 8764ft 176kts
10-Feb-19 14:26 34.287951 -118.709524 108 8764ft 207kts
10-Feb-19 14:27 34.285827 -118.641076 116 8764ft 194kts
10-Feb-19 14:28 34.269516 -118.586436 132 8763ft 173kts
10-Feb-19 14:29 34.246082 -118.545697 146 8763ft 155kts
10-Feb-19 14:30 34.220477 -118.503330 133 8767ft 163kts
10-Feb-19 14:31 34.206767 -118.449452 115 8771ft 176kts
10-Feb-19 14:32 34.200214 -118.391280 115 8775ft 173kts
10-Feb-19 14:33 34.191146 -118.337926 122 8776ft 164kts
10-Feb-19 14:34 34.173347 -118.291301 138 8779ft 146kts
10-Feb-19 14:35 34.144453 -118.264720 166 8781ft 127kts
10-Feb-19 14:36 34.110578 -118.255199 167 8782ft 125kts
10-Feb-19 14:37 34.079326 -118.236056 155 8760ft 128kts
10-Feb-19 14:38 34.049740 -118.213448 156 8761ft 129kts
10-Feb-19 14:39 34.018882 -118.192533 162 8762ft 128kts
10-Feb-19 14:40 33.986978 -118.175345 165 8762ft 129kts
10-Feb-19 14:41 33.955125 -118.157427 165 8761ft 132kts
10-Feb-19 14:42 33.921994 -118.136940 165 8761ft 136kts
10-Feb-19 14:43 33.889970 -118.115403 163 8772ft 139kts
10-Feb-19 14:44 33.855879 -118.090807 161 8749ft 141kts
10-Feb-19 14:45 33.821470 -118.067310 169 8749ft 143kts
10-Feb-19 14:46 33.784199 -118.055929 182 8750ft 137kts
10-Feb-19 14:47 33.746623 -118.050250 162 8753ft 149kts
10-Feb-19 14:48 33.725410 -118.001561 125 8756ft 174kts
10-Feb-19 14:49 33.701163 -117.961271 160 8760ft 141kts
10-Feb-19 14:50 33.668183 -117.936724 152 8763ft 144kts
10-Feb-19 14:51 33.642747 -117.897572 128 8765ft 159kts
10-Feb-19 14:52 33.626705 -117.855157 136 8765ft 152kts
10-Feb-19 14:53 33.597982 -117.824232 164 8765ft 129kts
10-Feb-19 14:55 33.572342 -117.803597 147 8765ft 136kts
10-Feb-19 14:56 33.548484 -117.767012 140 8765ft 142kts
10-Feb-19 14:57 33.522619 -117.733400 157 8767ft 132kts
10-Feb-19 14:58 33.490931 -117.711884 162 8768ft 133kts
10-Feb-19 14:59 33.460572 -117.683527 152 8770ft 145kts
10-Feb-19 15:00 33.434196 -117.642279 138 8773ft 167kts
10-Feb-19 15:01 33.419136 -117.594694 122 8192ft 149kts
10-Feb-19 15:02 33.401169 -117.556981 211 4335ft 112kts
10-Feb-19 15:03 33.374985 -117.555207 194 3574ft 88kts
10-Feb-19 15:04 33.350400 -117.552931 153 3392ft 109kts
10-Feb-19 15:05 33.341924 -117.521513 112 3540ft 113kts
10-Feb-19 15:06 33.319094 -117.500930 150 3323ft 105kts
10-Feb-19 15:07 33.291410 -117.479893 153 3198ft 141kts
10-Feb-19 15:08 33.252950 -117.458361 151 3047ft 151kts
10-Feb-19 15:09 33.218151 -117.435730 154 2940ft 140kts
10-Feb-19 15:09 33.187617 -117.425189 170 2940ft 135kts
10-Feb-19 15:11 33.144862 -117.415205 160 2940ft 133kts
10-Feb-19 15:12 33.111953 -117.395100 144 2940ft 133kts
10-Feb-19 15:13 33.080597 -117.363072 140 2941ft 166kts
10-Feb-19 15:13 33.047122 -117.338022 156 2940ft 176kts
10-Feb-19 15:14 32.999295 -117.324316 176 2940ft 178kts
10-Feb-19 15:16 32.942922 -117.321506 161 2941ft 168kts
10-Feb-19 15:17 32.903504 -117.292956 139 2940ft 165kts
10-Feb-19 15:17 32.873561 -117.265018 148 2940ft 165kts
10-Feb-19 15:18 32.837104 -117.246389 162 2940ft 164kts
10-Feb-19 15:19 32.792421 -117.233041 170 2940ft 164kts
10-Feb-19 15:20 32.759253 -117.203299 92 3113ft 161kts
10-Feb-19 15:21 32.760508 -117.153188 89 3918ft 145kts
10-Feb-19 15:22 32.766414 -117.100974 77 3565ft 173kts
10-Feb-19 15:23 32.756050 -117.049709 101 3604ft 146kts
10-Feb-19 15:24 32.745780 -117.003379 100 3747ft 148kts
10-Feb-19 15:25 32.724321 -116.976282 220 3592ft 167kts
10-Feb-19 15:26 32.713015 -117.027422 256 3855ft 156kts
10-Feb-19 15:27 32.707567 -117.076951 282 2968ft 135kts
10-Feb-19 15:28 32.714249 -117.110880 286 1827ft 86kts
10-Feb-19 15:29 32.720689 -117.136562 286 989ft 79kts
10-Feb-19 15:30 32.726709 -117.161362 289 594ft 76kts
10-Feb-19 15:31 32.732145 -117.183756 285 33ft 60kts
10-Feb-19 15:32 32.733949 -117.188036 5 18ft 0kts
10-Feb-19 15:33 32.733629 -117.185195 106 18ft 17kts
10-Feb-19 15:34 32.732534 -117.179362 49 18ft 7kts

Navigation Log

Ident Type
Flight plan parsing failed, navigation log unavailable